Albert, OK

9:44 PM CDT on July 30, 2014 (GMT -0500)
Peck's country (KOKANADA2) Elev 1255 ft | 35.10 °N, 98.32 °W | Change Station

Current weather conditions updated 3 minutes ago

Overcast
Overcast
69.6 °F
Feels Like 69.6 °F
N
3.0
Wind Variable Wind from NW
Gusts 10.0 mph

Tomorrow is forecast to be Warmer than today.

Today
High -- | Low -- °F
--% Chance of Precip.
Yesterday
High -- | Low -- °F
Precip. -- in
6:41 AM 8:38 PM
Waxing Crescent, 15% visible
Pressure 30.05 in
Visibility 10.0 miles
Clouds Overcast 700 ft
Dew Point 68 °F
Humidity 94%
Rainfall 0.80 in
Snow Depth Not available.
UV 0 out of 12
Pollen .70 out of 12
Air Quality Not available.
Flu Activity Not available.
METAR KOJA 310235Z AUTO 02012G19KT 10SM OVC007 23/22 A3005 RMK AO2 LTG DSNT SE

More Conditions Fewer Conditions

Pressure 30.05 in
Visibility 10.0 miles
Clouds Overcast 700 ft
Dew Point 68 °F
Humidity 94%
Rainfall 0.80 in
Snow Depth Not available.
UV 0 out of 12
Pollen .70 out of 12
Air Quality Not available.
Flu Activity Not available.
METAR KOJA 310235Z AUTO 02012G19KT 10SM OVC007 23/22 A3005 RMK AO2 LTG DSNT SE

More Conditions Fewer Conditions

10-Day Weather Forecast

Almanac

Astronomy

Jul. 30, 2014 Rise Set
Actual Time 6:41 AM CDT 8:38 PM CDT
Civil Twilight 6:13 AM CDT 9:06 PM CDT
Nautical Twilight 5:39 AM CDT 9:40 PM CDT
Astronomical Twilight 5:02 AM CDT 10:16 PM CDT
Moon 10:04 AM CDT (7/30) 10:32 PM CDT (7/30)
Length of Visible Light 14h 53m
Length of Day
13h 57m
Tomorrow will be 1m 37s shorter.
Waxing Crescent, 15% of the Moon is Illuminated
Today
Waxing Crescent
Aug 3
First Quarter
Aug 10
Full
Aug 17
Last Quarter
Aug 25
New

Today's Extremes

State Highs State Lows

Community

WunderPhotos

Upload Photos

1,739,275 photos uploaded!

Nearby

Snow Depth

Station Depth Elevation
No new snow has been reported.

Earthquake Activity

City Distance Mag. Time & Date
Caldwell, Kansas 134 miles 3.4 5:57 AM CDT
2014-07-26
Helena, Oklahoma 97 miles 3.3 11:56 PM CDT
2014-07-24
Guthrie, Oklahoma 63 miles 2.7 5:27 AM CDT
2014-07-24
Minimum magnitude displayed is 2.5.

Coastal Water Temperatures

Place Temperature
No Stations Reporting

Nearby Weather Stations

Station Location Temp. Dew Point Humidity Wind Precip. Elev Updated Type
Peck's country, Anadarko, OK 69.6 °F 68 °F 94% NW  at  3.0 mph 0.00 in / hr 1255 ft 9:40 PM CDT Normal
Carnegie, Carnegie, OK 68.9 °F 69 °F 100% NNW  at  5.8 mph 0.00 in / hr 1358 ft 9:44 PM CDT Rapid Fire

Show More Stations Show Fewer Stations